Time;durP1;ratioP1;P1;durP2;ratioP2;P2;SDS_P1;SDS_P2;PMS_P1;PMS_P2;Temp;Humidity;BMP_temperature;BMP_pressure;BME280_temperature;BME280_humidity;BME280_pressure;Samples;Min_cycle;Max_cycle;Signal;HPM_P1;HPM_P2
2022/01/23 00:02:11;;;;;;;15.32;10.88;;;5.40;99.90;;;;;;5018798;28;20218;-70
2022/01/23 00:04:40;;;;;;;16.48;11.57;;;5.40;99.90;;;;;;5007156;28;20198;-70
2022/01/23 00:07:11;;;;;;;17.10;11.60;;;5.40;99.90;;;;;;5030436;28;20221;-70
2022/01/23 00:09:40;;;;;;;15.70;11.65;;;5.40;99.90;;;;;;5013661;28;20194;-70
2022/01/23 00:12:13;;;;;;;15.55;12.23;;;5.40;99.90;;;;;;4989898;28;20300;-70
2022/01/23 00:17:34;;;;;;;17.27;11.30;;;5.40;99.90;;;;;;5013978;28;20234;-70
2022/01/23 00:20:04;;;;;;;15.20;11.07;;;5.40;99.90;;;;;;5028598;28;20215;-70
2022/01/23 00:22:39;;;;;;;15.48;11.20;;;5.40;99.90;;;;;;5030708;28;20193;-70
2022/01/23 00:30:43;;;;;;;15.98;12.02;;;5.40;99.90;;;;;;5013325;28;20268;-70
2022/01/23 00:33:12;;;;;;;16.27;11.25;;;5.40;99.90;;;;;;5000955;28;20210;-70
2022/01/23 00:35:43;;;;;;;15.80;11.38;;;5.40;99.90;;;;;;5019561;28;20637;-70
2022/01/23 00:38:12;;;;;;;18.88;11.95;;;5.40;99.90;;;;;;5010569;28;20217;-70
2022/01/23 00:40:42;;;;;;;15.77;10.98;;;5.40;99.90;;;;;;5015278;28;20222;-70
2022/01/23 00:43:16;;;;;;;14.40;9.55;;;5.40;99.90;;;;;;5008056;28;20601;-70
2022/01/23 00:45:49;;;;;;;19.60;12.50;;;5.40;99.90;;;;;;5023577;28;20839;-70
2022/01/23 00:48:24;;;;;;;19.75;13.25;;;5.40;99.90;;;;;;4998984;28;20570;-70
2022/01/23 00:50:52;;;;;;;15.30;11.15;;;5.40;99.90;;;;;;4990514;28;20253;-70
2022/01/23 00:53:20;;;;;;;16.70;11.80;;;5.40;99.90;;;;;;4996469;28;20232;-70
2022/01/23 00:55:49;;;;;;;17.70;12.20;;;5.40;99.90;;;;;;5027031;28;20213;-70
2022/01/23 00:58:17;;;;;;;16.92;11.27;;;5.40;99.90;;;;;;5004003;28;20226;-70
2022/01/23 01:00:47;;;;;;;14.93;10.82;;;5.40;99.90;;;;;;5032616;28;20228;-70
2022/01/23 01:03:15;;;;;;;15.65;10.50;;;5.40;99.90;;;;;;5005353;28;20199;-70
2022/01/23 01:05:43;;;;;;;13.93;10.40;;;5.40;99.90;;;;;;5033602;28;20221;-70
2022/01/23 01:08:11;;;;;;;15.05;10.30;;;5.40;99.90;;;;;;5014568;28;20237;-70
2022/01/23 01:10:46;;;;;;;18.50;11.57;;;5.40;99.90;;;;;;5012637;28;20248;-70
2022/01/23 01:13:14;;;;;;;15.32;10.73;;;5.40;99.90;;;;;;4998187;28;20228;-70
2022/01/23 01:15:59;;;;;;;19.58;12.13;;;5.40;99.90;;;;;;5008851;28;20214;-70
2022/01/23 01:32:29;;;;;;;16.20;11.02;;;5.40;99.90;;;;;;5018064;28;20253;-70
2022/01/23 01:35:03;;;;;;;12.57;10.30;;;5.40;99.90;;;;;;5010949;28;20204;-70
2022/01/23 01:37:31;;;;;;;18.85;12.35;;;5.40;99.90;;;;;;5019899;28;20209;-70
2022/01/23 01:39:59;;;;;;;17.02;11.93;;;5.40;99.90;;;;;;5017833;28;20231;-70
2022/01/23 01:42:29;;;;;;;18.00;13.05;;;5.40;99.90;;;;;;5004657;28;20198;-70
2022/01/23 01:44:57;;;;;;;13.95;10.75;;;5.40;99.90;;;;;;5019670;28;20197;-70
2022/01/23 01:47:48;;;;;;;12.95;9.65;;;5.40;99.90;;;;;;5010552;28;20324;-70
2022/01/23 01:50:18;;;;;;;14.90;9.75;;;5.40;99.90;;;;;;5011906;28;20217;-70
2022/01/23 01:52:47;;;;;;;13.82;10.00;;;5.40;99.90;;;;;;5027886;28;20194;-70
2022/01/23 01:55:23;;;;;;;14.60;10.80;;;5.40;99.90;;;;;;5007025;28;20648;-70
2022/01/23 01:58:01;;;;;;;16.23;12.45;;;5.40;99.90;;;;;;4997922;28;20221;-70
2022/01/23 02:01:12;;;;;;;13.45;10.20;;;5.40;99.90;;;;;;4990065;28;20229;-70
2022/01/23 02:09:34;;;;;;;16.27;11.10;;;5.40;99.90;;;;;;5016450;28;20225;-70
2022/01/23 02:12:19;;;;;;;17.85;12.02;;;5.40;99.90;;;;;;5010202;28;20225;-70
2022/01/23 02:15:10;;;;;;;14.63;9.80;;;5.40;99.90;;;;;;4996231;28;20210;-70
2022/01/23 02:17:55;;;;;;;15.52;10.00;;;5.40;99.90;;;;;;5003978;28;20735;-70
2022/01/23 02:23:30;;;;;;;13.40;9.35;;;5.40;99.90;;;;;;5011740;28;20281;-70
2022/01/23 02:51:26;;;;;;;11.50;9.07;;;5.40;99.90;;;;;;5031736;28;20699;-70
2022/01/23 02:54:18;;;;;;;14.85;9.80;;;5.40;99.90;;;;;;5030135;28;20259;-70
2022/01/23 02:56:50;;;;;;;13.57;9.93;;;5.40;99.90;;;;;;5016060;28;20229;-70
2022/01/23 02:59:25;;;;;;;12.52;9.15;;;5.40;99.90;;;;;;5030920;28;20201;-70
2022/01/23 03:02:10;;;;;;;13.50;9.68;;;5.40;99.90;;;;;;5027191;28;20222;-70
2022/01/23 03:05:08;;;;;;;12.80;9.43;;;5.40;99.90;;;;;;5030370;28;20204;-70
2022/01/23 03:07:54;;;;;;;12.50;8.95;;;5.40;99.90;;;;;;5015079;28;20268;-70
2022/01/23 03:10:26;;;;;;;13.05;8.90;;;5.40;99.90;;;;;;5007084;28;20233;-70
2022/01/23 03:16:09;;;;;;;13.13;9.38;;;5.40;99.90;;;;;;5023982;28;20287;-70
2022/01/23 03:24:22;;;;;;;10.30;8.05;;;5.40;99.90;;;;;;5011394;28;20201;-70
2022/01/23 03:27:02;;;;;;;12.10;9.73;;;5.40;99.90;;;;;;5005588;28;20214;-70
2022/01/23 03:29:50;;;;;;;12.45;8.45;;;5.50;99.90;;;;;;5000177;28;20220;-70
2022/01/23 03:32:23;;;;;;;16.92;11.23;;;5.40;99.90;;;;;;5017418;28;20222;-71
2022/01/23 03:34:51;;;;;;;13.52;9.85;;;5.40;99.90;;;;;;5017497;28;20824;-70
2022/01/23 03:37:20;;;;;;;12.65;9.05;;;5.40;99.90;;;;;;5029634;28;20282;-70
2022/01/23 03:39:48;;;;;;;14.40;8.68;;;5.40;99.90;;;;;;5020087;28;20205;-70
2022/01/23 03:42:17;;;;;;;9.65;7.88;;;5.40;99.90;;;;;;4991438;28;20226;-70
2022/01/23 03:45:01;;;;;;;11.80;8.57;;;5.40;99.90;;;;;;5023308;28;20188;-70
2022/01/23 03:47:37;;;;;;;9.77;8.13;;;5.40;99.90;;;;;;5012731;28;20226;-70
2022/01/23 03:50:08;;;;;;;13.68;9.55;;;5.40;99.90;;;;;;5026879;28;20244;-70
2022/01/23 03:52:40;;;;;;;13.65;8.40;;;5.40;99.90;;;;;;5031147;28;20280;-70
2022/01/23 03:55:09;;;;;;;10.02;7.47;;;5.40;99.90;;;;;;5010986;28;20233;-70
2022/01/23 03:57:39;;;;;;;10.50;7.80;;;5.40;99.90;;;;;;5017129;28;20221;-70
2022/01/23 04:00:09;;;;;;;14.90;10.88;;;5.40;99.90;;;;;;5029109;28;20205;-70
2022/01/23 04:02:43;;;;;;;12.15;8.65;;;5.40;99.90;;;;;;5023754;28;20215;-70
2022/01/23 04:05:21;;;;;;;12.00;8.85;;;5.40;99.90;;;;;;5009092;28;20224;-70
2022/01/23 04:07:49;;;;;;;15.98;11.68;;;5.40;99.90;;;;;;5018421;28;20212;-70
2022/01/23 04:10:20;;;;;;;12.77;8.80;;;5.40;99.90;;;;;;5028989;28;20229;-70
2022/01/23 04:12:54;;;;;;;10.48;7.30;;;5.40;99.90;;;;;;5025562;28;20201;-70
2022/01/23 04:15:31;;;;;;;12.45;8.70;;;5.40;99.90;;;;;;5009040;28;20230;-70
2022/01/23 04:20:50;;;;;;;13.43;9.80;;;5.40;99.90;;;;;;5020370;28;20217;-70
2022/01/23 04:31:49;;;;;;;9.38;7.10;;;5.40;99.90;;;;;;5012352;28;20734;-70
2022/01/23 04:34:29;;;;;;;12.27;8.10;;;5.40;99.90;;;;;;5006711;28;20189;-70
2022/01/23 04:45:28;;;;;;;10.57;7.90;;;5.40;99.90;;;;;;5029700;28;20231;-70
2022/01/23 05:02:07;;;;;;;12.15;8.70;;;5.40;99.90;;;;;;5012943;28;20600;-70
2022/01/23 05:04:54;;;;;;;11.15;8.50;;;5.40;99.90;;;;;;5000233;28;20213;-71
2022/01/23 05:07:45;;;;;;;9.82;7.63;;;5.40;99.90;;;;;;5010761;28;20217;-70
2022/01/23 05:10:40;;;;;;;10.85;7.63;;;5.40;99.90;;;;;;5021553;28;20686;-70
2022/01/23 05:13:25;;;;;;;12.25;9.15;;;5.40;99.90;;;;;;5005843;28;20202;-70
2022/01/23 05:15:54;;;;;;;11.27;8.13;;;5.40;99.90;;;;;;5024431;28;20311;-70
2022/01/23 05:18:24;;;;;;;14.18;11.13;;;5.40;99.90;;;;;;5006448;28;20217;-70
2022/01/23 05:21:01;;;;;;;14.50;9.77;;;5.40;99.90;;;;;;5029567;28;20224;-70
2022/01/23 05:23:30;;;;;;;9.70;7.72;;;5.40;99.90;;;;;;5024053;28;20197;-70
2022/01/23 05:25:58;;;;;;;10.25;7.88;;;5.40;99.90;;;;;;5004489;28;20284;-70
2022/01/23 05:28:26;;;;;;;15.93;11.20;;;5.40;99.90;;;;;;4994311;28;20259;-70
2022/01/23 05:30:54;;;;;;;11.18;7.95;;;5.40;99.90;;;;;;4988729;28;20755;-70
2022/01/23 05:33:23;;;;;;;12.15;7.95;;;5.40;99.90;;;;;;5017294;28;20204;-70
2022/01/23 05:35:52;;;;;;;11.00;7.28;;;5.40;99.90;;;;;;5027767;28;20287;-70
2022/01/23 05:38:21;;;;;;;9.40;7.85;;;5.40;99.90;;;;;;5021235;28;20201;-70
2022/01/23 05:40:56;;;;;;;11.35;8.20;;;5.40;99.90;;;;;;5030002;28;20609;-70
2022/01/23 05:43:26;;;;;;;13.10;9.30;;;5.40;99.90;;;;;;5013179;28;20189;-70
2022/01/23 05:45:54;;;;;;;16.90;11.80;;;5.40;99.90;;;;;;4995419;28;20240;-70
2022/01/23 05:48:42;;;;;;;9.20;7.13;;;5.40;99.90;;;;;;5008436;28;20285;-70
2022/01/23 05:51:32;;;;;;;9.18;7.35;;;5.40;99.90;;;;;;4992778;28;20230;-70
2022/01/23 05:54:00;;;;;;;9.38;7.97;;;5.40;99.90;;;;;;4993917;28;20282;-70
2022/01/23 05:56:48;;;;;;;10.23;7.70;;;5.40;99.90;;;;;;5028022;28;20225;-70
2022/01/23 05:59:39;;;;;;;8.40;6.93;;;5.40;99.90;;;;;;5025468;28;20197;-70
2022/01/23 06:02:08;;;;;;;9.38;7.68;;;5.40;99.90;;;;;;4994437;28;20217;-70
2022/01/23 06:04:40;;;;;;;8.90;7.32;;;5.40;99.90;;;;;;5011717;28;20292;-70
2022/01/23 06:07:18;;;;;;;9.13;6.47;;;5.40;99.90;;;;;;5011875;28;20248;-70
2022/01/23 06:09:57;;;;;;;9.27;6.85;;;5.40;99.90;;;;;;5011785;28;20225;-71
2022/01/23 06:12:25;;;;;;;10.23;7.68;;;5.40;99.90;;;;;;5008532;28;20214;-70
2022/01/23 06:14:53;;;;;;;8.93;6.57;;;5.40;99.90;;;;;;4992175;28;20191;-70
2022/01/23 06:17:21;;;;;;;11.60;7.63;;;5.40;99.90;;;;;;5005402;28;20223;-70
2022/01/23 06:20:11;;;;;;;9.50;7.43;;;5.40;99.90;;;;;;5015784;28;20202;-70
2022/01/23 06:22:57;;;;;;;10.82;8.18;;;5.40;99.90;;;;;;5013151;28;20272;-70
2022/01/23 06:25:46;;;;;;;7.13;6.15;;;5.40;99.90;;;;;;5016795;28;20216;-70
2022/01/23 06:28:31;;;;;;;8.70;6.72;;;5.40;99.90;;;;;;5016258;28;20229;-70
2022/01/23 06:30:59;;;;;;;9.73;7.05;;;5.40;99.90;;;;;;5052930;28;20205;-70
2022/01/23 06:33:28;;;;;;;8.80;6.45;;;5.40;99.90;;;;;;5003043;28;20219;-70
2022/01/23 06:35:59;;;;;;;9.45;8.00;;;5.40;99.90;;;;;;5025825;28;20324;-70
2022/01/23 06:38:27;;;;;;;8.48;6.78;;;5.40;99.90;;;;;;5031692;28;20217;-70
2022/01/23 06:40:55;;;;;;;8.75;6.53;;;5.40;99.90;;;;;;5029261;28;20307;-70
2022/01/23 06:43:42;;;;;;;8.35;6.95;;;5.40;99.90;;;;;;5012936;28;20209;-70
2022/01/23 06:46:15;;;;;;;8.10;7.18;;;5.40;99.90;;;;;;5011101;28;20224;-70
2022/01/23 06:48:44;;;;;;;8.02;6.13;;;5.40;99.90;;;;;;5022887;28;20216;-70
2022/01/23 06:51:14;;;;;;;15.75;10.98;;;5.40;99.90;;;;;;5013289;28;20261;-70
2022/01/23 06:53:42;;;;;;;11.45;7.57;;;5.40;99.90;;;;;;5013728;28;20594;-70
2022/01/23 06:56:10;;;;;;;9.98;7.70;;;5.40;99.90;;;;;;5010531;28;20707;-70
2022/01/23 06:58:39;;;;;;;16.23;9.10;;;5.40;99.90;;;;;;5011103;28;20607;-70
2022/01/23 07:01:08;;;;;;;11.23;8.88;;;5.40;99.90;;;;;;5011666;28;20232;-70
2022/01/23 07:03:49;;;;;;;11.38;8.57;;;5.40;99.90;;;;;;5024130;28;20730;-70
2022/01/23 07:06:22;;;;;;;13.07;9.07;;;5.40;99.90;;;;;;5012537;28;20217;-70
2022/01/23 07:09:21;;;;;;;9.88;8.32;;;5.40;99.90;;;;;;5011034;28;20654;-70
2022/01/23 07:12:04;;;;;;;12.40;9.32;;;5.40;99.90;;;;;;5008049;28;20595;-70
2022/01/23 07:14:51;;;;;;;8.13;6.65;;;5.40;99.90;;;;;;5022251;28;20651;-70
2022/01/23 07:17:42;;;;;;;9.95;6.25;;;5.40;99.90;;;;;;5016725;28;20256;-70
2022/01/23 07:20:29;;;;;;;9.38;7.05;;;5.40;99.90;;;;;;5011481;28;20225;-70
2022/01/23 07:23:05;;;;;;;8.40;7.20;;;5.40;99.90;;;;;;5007345;28;20213;-70
2022/01/23 07:25:33;;;;;;;7.22;5.82;;;5.40;99.90;;;;;;5003232;28;20217;-70
2022/01/23 07:28:03;;;;;;;7.93;6.20;;;5.40;99.90;;;;;;4997902;28;20325;-70
2022/01/23 07:30:36;;;;;;;10.73;7.97;;;5.40;99.90;;;;;;5010919;28;20260;-70
2022/01/23 07:33:05;;;;;;;9.98;7.13;;;5.40;99.90;;;;;;5013268;28;20196;-70
2022/01/23 07:35:34;;;;;;;10.70;6.70;;;5.40;99.90;;;;;;5021394;28;20259;-70
2022/01/23 07:38:02;;;;;;;9.05;6.95;;;5.40;99.90;;;;;;4990627;28;20313;-70
2022/01/23 07:40:50;;;;;;;10.48;7.65;;;5.40;99.90;;;;;;4991845;28;20688;-70
2022/01/23 07:43:25;;;;;;;7.50;6.53;;;5.40;99.90;;;;;;5007279;28;20198;-70
2022/01/23 07:46:12;;;;;;;7.55;6.03;;;5.40;99.90;;;;;;4991358;28;20261;-70
2022/01/23 07:49:07;;;;;;;8.93;6.30;;;5.40;99.90;;;;;;4991359;28;20222;-70
2022/01/23 07:51:59;;;;;;;8.48;6.13;;;5.40;99.90;;;;;;4992125;28;20227;-70
2022/01/23 07:54:44;;;;;;;7.68;6.22;;;5.40;99.90;;;;;;5029809;28;20848;-70
2022/01/23 07:57:31;;;;;;;9.75;6.82;;;5.40;99.90;;;;;;5009946;28;20230;-70
2022/01/23 08:00:22;;;;;;;15.75;9.18;;;5.40;99.90;;;;;;4991045;28;20284;-70
2022/01/23 08:02:50;;;;;;;9.82;7.35;;;5.40;99.90;;;;;;4991840;28;20646;-70
2022/01/23 08:05:18;;;;;;;9.40;7.30;;;5.40;99.90;;;;;;4991024;28;20371;-70
2022/01/23 08:08:03;;;;;;;10.25;7.95;;;5.40;99.90;;;;;;5006464;28;20343;-70
2022/01/23 08:10:52;;;;;;;6.43;5.53;;;5.40;99.90;;;;;;4985639;28;20226;-70
2022/01/23 08:13:21;;;;;;;6.70;5.80;;;5.40;99.90;;;;;;4991452;28;20229;-70
2022/01/23 08:15:51;;;;;;;9.82;6.40;;;5.40;99.90;;;;;;4990700;28;20238;-70
2022/01/23 08:18:20;;;;;;;9.00;6.38;;;5.40;99.90;;;;;;4999522;28;20232;-70
2022/01/23 08:20:48;;;;;;;8.40;6.60;;;5.40;99.90;;;;;;5010276;28;20222;-70
2022/01/23 08:23:21;;;;;;;7.70;6.90;;;5.40;99.90;;;;;;5010973;28;20405;-70
2022/01/23 08:25:50;;;;;;;8.52;6.22;;;5.40;99.90;;;;;;5009823;28;20300;-70
2022/01/23 08:28:18;;;;;;;9.23;7.47;;;5.40;99.90;;;;;;5005558;28;20554;-70
2022/01/23 08:30:47;;;;;;;8.10;6.57;;;5.40;99.90;;;;;;5029448;28;20217;-70
2022/01/23 08:33:16;;;;;;;6.82;5.50;;;5.40;99.90;;;;;;5001127;28;20609;-70
2022/01/23 08:35:45;;;;;;;8.27;6.40;;;5.40;99.90;;;;;;5008433;28;20241;-70
2022/01/23 08:38:14;;;;;;;8.13;6.35;;;5.40;99.90;;;;;;5012776;28;20228;-70
2022/01/23 08:40:48;;;;;;;6.70;5.53;;;5.40;99.90;;;;;;5018788;28;20317;-70
2022/01/23 08:43:17;;;;;;;9.13;6.38;;;5.40;99.90;;;;;;5013957;28;20193;-70
2022/01/23 08:45:47;;;;;;;6.88;5.97;;;5.40;99.90;;;;;;5025255;28;20212;-70
2022/01/23 08:48:15;;;;;;;7.25;6.55;;;5.40;99.90;;;;;;5015701;28;20217;-70
2022/01/23 08:50:43;;;;;;;7.90;6.55;;;5.40;99.90;;;;;;5016996;28;20650;-70
2022/01/23 08:53:11;;;;;;;10.18;8.23;;;5.40;99.90;;;;;;5030201;28;20445;-70
2022/01/23 08:55:39;;;;;;;11.05;7.53;;;5.40;99.90;;;;;;5021002;28;20888;-70
2022/01/23 08:58:07;;;;;;;9.70;7.18;;;5.40;99.90;;;;;;5029845;28;20696;-70
2022/01/23 09:00:36;;;;;;;10.75;8.05;;;5.40;99.90;;;;;;5029806;28;20209;-70
2022/01/23 09:03:05;;;;;;;9.65;6.30;;;5.40;99.90;;;;;;5004044;28;20187;-70
2022/01/23 09:05:33;;;;;;;9.23;6.85;;;5.40;99.90;;;;;;5005366;28;20230;-70
2022/01/23 09:08:01;;;;;;;9.27;5.80;;;5.40;99.90;;;;;;5010977;28;20228;-70
2022/01/23 09:10:39;;;;;;;8.38;6.00;;;5.50;99.90;;;;;;5029508;28;20307;-70
2022/01/23 09:13:16;;;;;;;7.57;5.40;;;5.40;99.90;;;;;;5000890;28;20256;-70
2022/01/23 09:15:44;;;;;;;10.70;7.43;;;5.40;99.90;;;;;;4994171;28;20241;-70
2022/01/23 09:18:14;;;;;;;7.03;5.53;;;5.40;99.90;;;;;;4994363;28;20265;-78
2022/01/23 09:20:42;;;;;;;8.10;6.10;;;5.40;99.90;;;;;;5011204;28;20255;-78
2022/01/23 09:23:10;;;;;;;9.85;6.28;;;5.40;99.90;;;;;;5012661;28;20248;-78
2022/01/23 09:25:38;;;;;;;11.30;7.72;;;5.40;99.90;;;;;;5003532;28;20639;-78
2022/01/23 09:28:12;;;;;;;8.00;6.05;;;5.40;99.90;;;;;;5002618;28;20248;-78
2022/01/23 09:30:43;;;;;;;6.75;5.40;;;5.40;99.90;;;;;;5012435;28;20249;-78
2022/01/23 09:33:11;;;;;;;12.57;8.57;;;5.40;99.90;;;;;;5000083;28;20198;-78
2022/01/23 09:35:40;;;;;;;8.23;5.90;;;5.40;99.90;;;;;;4993451;28;20218;-78
2022/01/23 09:38:08;;;;;;;8.13;7.00;;;5.40;99.90;;;;;;4994208;28;20700;-78
2022/01/23 09:40:40;;;;;;;9.55;6.35;;;5.40;99.90;;;;;;4993673;28;20253;-78
2022/01/23 09:43:12;;;;;;;6.85;6.15;;;5.40;99.90;;;;;;5009312;28;20278;-78
2022/01/23 09:45:42;;;;;;;8.77;6.05;;;5.40;99.90;;;;;;5032072;28;20642;-78
2022/01/23 09:48:11;;;;;;;7.97;6.35;;;5.40;99.90;;;;;;5004893;28;20206;-78
2022/01/23 09:50:43;;;;;;;9.48;7.28;;;5.40;99.90;;;;;;5007956;28;20241;-78
2022/01/23 09:53:12;;;;;;;6.85;5.65;;;5.40;99.90;;;;;;5013674;28;20213;-78
2022/01/23 09:55:42;;;;;;;7.90;5.88;;;5.40;99.90;;;;;;5008375;28;20307;-78
2022/01/23 09:58:10;;;;;;;6.15;5.55;;;5.40;99.90;;;;;;5025281;28;20615;-78
2022/01/23 10:00:38;;;;;;;6.10;4.97;;;5.40;99.90;;;;;;5019702;28;20621;-78
2022/01/23 10:03:07;;;;;;;6.88;5.22;;;5.40;99.90;;;;;;5006590;28;20201;-78
2022/01/23 10:05:35;;;;;;;6.65;5.32;;;5.40;99.90;;;;;;5013353;28;20227;-78
2022/01/23 10:08:07;;;;;;;6.13;4.70;;;5.40;99.90;;;;;;5031741;28;20261;-78
2022/01/23 10:10:39;;;;;;;8.15;5.55;;;5.40;99.90;;;;;;5019307;28;20264;-79
2022/01/23 10:13:08;;;;;;;8.05;6.03;;;5.40;99.90;;;;;;5027201;28;20537;-78
2022/01/23 10:15:36;;;;;;;6.53;4.32;;;5.40;99.90;;;;;;5030977;28;20221;-78
2022/01/23 10:18:04;;;;;;;6.80;5.35;;;5.50;99.90;;;;;;5006844;28;20309;-78
2022/01/23 10:20:33;;;;;;;7.88;5.35;;;5.40;99.90;;;;;;4993125;28;20222;-78
2022/01/23 10:23:01;;;;;;;8.45;6.07;;;5.40;99.90;;;;;;4992255;28;20329;-78
2022/01/23 10:25:31;;;;;;;7.00;5.68;;;5.40;99.90;;;;;;4991338;28;20268;-78
2022/01/23 10:28:06;;;;;;;6.80;5.22;;;5.40;99.90;;;;;;5003518;28;20544;-78
2022/01/23 10:30:37;;;;;;;5.30;4.80;;;5.40;99.90;;;;;;5012308;28;20236;-78
2022/01/23 10:33:10;;;;;;;5.10;4.60;;;5.40;99.90;;;;;;4999832;28;20230;-79
2022/01/23 10:36:02;;;;;;;7.10;4.85;;;5.40;99.90;;;;;;4992623;28;20324;-78
2022/01/23 10:38:33;;;;;;;6.32;4.32;;;5.40;99.90;;;;;;4992968;28;20226;-78
2022/01/23 10:41:15;;;;;;;6.93;5.80;;;5.40;99.90;;;;;;4992848;28;20226;-78
2022/01/23 10:47:06;;;;;;;6.30;4.47;;;5.40;99.90;;;;;;4992433;28;20276;-78
2022/01/23 10:49:47;;;;;;;6.25;4.60;;;5.50;99.90;;;;;;4992866;28;20233;-78
2022/01/23 10:52:25;;;;;;;6.78;4.20;;;5.40;99.90;;;;;;4991196;28;20226;-78
2022/01/23 10:54:54;;;;;;;11.75;7.65;;;5.40;99.90;;;;;;5022434;28;20185;-78
2022/01/23 10:57:23;;;;;;;8.18;4.60;;;5.40;99.90;;;;;;4999883;28;20218;-79
2022/01/23 10:59:54;;;;;;;5.57;5.00;;;5.50;99.90;;;;;;4992900;28;20238;-78
2022/01/23 11:02:39;;;;;;;7.53;6.20;;;5.50;99.90;;;;;;4997067;28;20757;-71
2022/01/23 11:05:10;;;;;;;7.22;5.22;;;5.40;99.90;;;;;;5024845;28;20228;-48
2022/01/23 11:07:41;;;;;;;5.57;4.80;;;5.40;99.90;;;;;;5029820;28;20189;-48
2022/01/23 11:10:12;;;;;;;6.68;5.05;;;5.40;99.90;;;;;;5030251;28;20212;-48
2022/01/23 11:17:21;;;;;;;4.93;4.35;;;5.40;99.90;;;;;;5000252;28;20191;-48
2022/01/23 11:18:34;;;;;;;6.15;4.72;;;5.40;99.90;;;;;;4968251;28;20588;-49
2022/01/23 11:21:15;;;;;;;6.57;5.32;;;5.40;99.90;;;;;;5009846;28;20759;-47
2022/01/23 11:23:44;;;;;;;5.45;4.82;;;5.40;99.90;;;;;;5009760;28;20248;-47
2022/01/23 11:26:13;;;;;;;7.15;6.05;;;5.40;99.90;;;;;;5006432;28;20236;-48
2022/01/23 11:28:47;;;;;;;6.70;5.53;;;5.50;99.90;;;;;;5009873;28;20317;-48
2022/01/23 11:31:19;;;;;;;6.55;5.07;;;5.50;99.90;;;;;;5009900;28;20701;-48
2022/01/23 11:33:48;;;;;;;5.47;4.20;;;5.50;99.90;;;;;;4994555;28;20669;-48
2022/01/23 11:36:18;;;;;;;5.72;4.85;;;5.50;99.90;;;;;;5004446;28;20214;-48
2022/01/23 11:38:48;;;;;;;6.63;5.03;;;5.40;99.90;;;;;;5005400;28;20217;-48
2022/01/23 11:55:32;;;;;;;5.35;4.85;;;5.50;99.90;;;;;;4988503;28;20197;-48
2022/01/23 11:58:01;;;;;;;4.78;4.30;;;5.50;99.90;;;;;;4991302;28;20223;-47
2022/01/23 12:00:32;;;;;;;5.50;4.32;;;5.50;99.90;;;;;;5007231;28;20233;-48
2022/01/23 12:03:14;;;;;;;5.60;5.03;;;5.50;99.90;;;;;;4998041;28;20206;-49
2022/01/23 12:05:44;;;;;;;6.13;4.70;;;5.50;99.90;;;;;;4990265;28;20226;-48
2022/01/23 12:08:27;;;;;;;5.95;4.72;;;5.50;99.90;;;;;;4990259;28;20238;-48
2022/01/23 12:17:41;;;;;;;6.40;4.60;;;5.50;99.90;;;;;;5000579;28;20313;-48
2022/01/23 12:20:10;;;;;;;4.25;3.85;;;5.50;99.90;;;;;;4989040;28;20309;-48
2022/01/23 12:22:42;;;;;;;5.25;4.20;;;5.50;99.90;;;;;;4990183;28;20278;-48
2022/01/23 12:25:24;;;;;;;5.05;4.10;;;5.50;99.90;;;;;;4989352;28;20281;-49
2022/01/23 12:28:20;;;;;;;4.10;3.70;;;5.50;99.90;;;;;;4994988;28;20565;-49
2022/01/23 12:30:56;;;;;;;5.63;4.28;;;5.50;99.90;;;;;;5009038;28;20226;-48
2022/01/23 12:33:32;;;;;;;4.20;3.80;;;5.50;99.90;;;;;;4996078;28;20554;-48
2022/01/23 12:36:04;;;;;;;4.25;3.85;;;5.50;99.90;;;;;;5008849;28;20617;-48
2022/01/23 12:38:36;;;;;;;4.65;3.30;;;5.50;99.90;;;;;;5008630;28;20268;-48
2022/01/23 12:41:23;;;;;;;5.07;3.95;;;5.50;99.90;;;;;;5002881;28;20736;-48
2022/01/23 12:43:55;;;;;;;4.45;4.05;;;5.50;99.90;;;;;;4989969;28;20190;-47
2022/01/23 12:46:29;;;;;;;5.93;4.25;;;5.50;99.90;;;;;;4997362;28;20304;-48
2022/01/23 12:49:00;;;;;;;5.72;4.13;;;5.50;99.90;;;;;;4989503;28;20232;-48
2022/01/23 12:51:42;;;;;;;4.82;4.30;;;5.50;99.90;;;;;;4989427;28;20218;-49
2022/01/23 12:54:29;;;;;;;4.53;3.95;;;5.50;99.90;;;;;;4989665;28;20562;-49
2022/01/23 12:57:05;;;;;;;5.68;4.20;;;5.50;99.90;;;;;;4989151;28;20288;-48
2022/01/23 12:59:35;;;;;;;4.35;3.85;;;5.50;99.90;;;;;;4989353;28;20229;-48
2022/01/23 13:02:11;;;;;;;5.53;4.53;;;5.50;99.90;;;;;;4989813;28;20237;-47
2022/01/23 13:04:43;;;;;;;4.72;4.25;;;5.50;99.90;;;;;;4989930;28;20213;-47
2022/01/23 13:07:26;;;;;;;4.47;4.03;;;5.50;99.90;;;;;;4989250;28;20638;-48
2022/01/23 13:10:01;;;;;;;4.97;4.13;;;5.50;99.90;;;;;;4989503;28;20225;-48
2022/01/23 13:12:48;;;;;;;6.13;4.43;;;5.50;99.90;;;;;;4990644;28;20228;-46
2022/01/23 13:15:40;;;;;;;5.88;4.55;;;5.50;99.90;;;;;;4989496;28;20241;-47
2022/01/23 13:32:10;;;;;;;4.78;4.15;;;5.50;99.90;;;;;;4989212;28;20223;-49
2022/01/23 13:34:41;;;;;;;4.57;3.58;;;5.50;99.90;;;;;;4997619;28;20202;-48
2022/01/23 13:37:13;;;;;;;4.57;3.78;;;5.50;99.90;;;;;;5007353;28;20225;-49
2022/01/23 13:39:47;;;;;;;4.55;4.15;;;5.50;99.90;;;;;;5008954;28;20747;-49
2022/01/23 13:42:31;;;;;;;4.30;3.85;;;5.50;99.90;;;;;;4997092;28;20689;-48
2022/01/23 13:51:31;;;;;;;3.97;3.60;;;5.50;99.90;;;;;;4968177;28;20253;-47
2022/01/23 13:54:19;;;;;;;4.00;3.35;;;5.50;99.90;;;;;;5008813;28;20269;-48
2022/01/23 13:59:43;;;;;;;4.50;3.83;;;5.50;99.90;;;;;;4990898;28;20219;-47
2022/01/23 14:02:17;;;;;;;4.47;3.97;;;5.50;99.90;;;;;;4997377;28;20226;-47
2022/01/23 14:04:49;;;;;;;4.40;3.97;;;5.50;99.90;;;;;;5009671;28;20299;-49
2022/01/23 14:07:19;;;;;;;5.88;4.00;;;5.50;99.90;;;;;;5011606;28;20229;-49
2022/01/23 14:09:55;;;;;;;4.35;3.78;;;5.50;99.90;;;;;;5012621;28;20209;-47
2022/01/23 14:12:25;;;;;;;5.28;3.83;;;5.50;99.90;;;;;;5009313;28;20217;-48
2022/01/23 14:15:16;;;;;;;4.18;3.72;;;5.50;99.90;;;;;;5011555;28;20272;-48
2022/01/23 14:17:57;;;;;;;5.32;4.32;;;5.50;99.90;;;;;;4999489;28;20218;-49
2022/01/23 14:20:25;;;;;;;6.72;4.60;;;5.60;99.90;;;;;;5004365;28;20217;-47
2022/01/23 14:22:55;;;;;;;4.35;3.90;;;5.50;99.90;;;;;;5010765;28;20273;-49
2022/01/23 14:25:28;;;;;;;4.05;3.13;;;5.50;99.90;;;;;;5010922;28;20646;-49
2022/01/23 14:28:06;;;;;;;3.63;3.33;;;5.50;99.90;;;;;;5005732;28;20296;-48
2022/01/23 14:30:35;;;;;;;5.38;3.67;;;5.50;99.90;;;;;;5031731;28;20251;-49
2022/01/23 14:33:13;;;;;;;4.75;3.95;;;5.50;99.90;;;;;;5007229;28;20223;-47
2022/01/23 14:35:41;;;;;;;6.05;4.68;;;5.50;99.90;;;;;;4992549;28;20222;-47
2022/01/23 14:38:12;;;;;;;6.45;4.70;;;5.50;99.90;;;;;;5001825;28;20182;-48
2022/01/23 14:41:01;;;;;;;4.57;3.80;;;5.50;99.90;;;;;;5012087;28;20233;-48
2022/01/23 14:43:36;;;;;;;3.97;3.67;;;5.50;99.90;;;;;;5012755;28;20202;-48
2022/01/23 14:46:06;;;;;;;5.07;3.85;;;5.50;99.90;;;;;;5024651;28;20222;-49
2022/01/23 14:48:41;;;;;;;5.70;3.95;;;5.50;99.90;;;;;;4994231;28;20229;-48
2022/01/23 14:51:10;;;;;;;4.20;3.17;;;5.50;99.90;;;;;;5004023;28;20225;-47
2022/01/23 14:54:09;;;;;;;;;;;;;;;;;;;;;
2022/01/23 14:56:42;;;;;;;9.38;6.80;;;5.50;99.90;;;;;;5009212;28;20465;-48
2022/01/23 14:59:11;;;;;;;7.55;5.68;;;5.50;99.90;;;;;;5031440;28;20753;-48
2022/01/23 15:01:41;;;;;;;9.18;6.10;;;5.60;99.90;;;;;;5027161;28;20224;-48
2022/01/23 15:04:11;;;;;;;6.97;5.65;;;5.50;99.90;;;;;;4993212;28;20202;-48
2022/01/23 15:06:44;;;;;;;6.90;5.30;;;5.60;99.90;;;;;;4990892;28;20230;-48
2022/01/23 15:09:15;;;;;;;6.75;4.97;;;5.60;99.90;;;;;;4991479;28;20276;-49
2022/01/23 15:11:45;;;;;;;6.60;5.00;;;5.50;99.90;;;;;;4994466;28;20284;-49
2022/01/23 15:14:13;;;;;;;5.97;4.80;;;5.50;99.90;;;;;;5018812;28;20235;-48
2022/01/23 15:16:42;;;;;;;6.80;4.70;;;5.60;99.90;;;;;;5027947;28;20228;-49
2022/01/23 15:19:12;;;;;;;5.70;4.78;;;5.60;99.90;;;;;;4990821;28;20242;-48
2022/01/23 15:21:40;;;;;;;6.90;5.20;;;5.50;99.90;;;;;;4990787;28;20281;-49
2022/01/23 15:24:08;;;;;;;6.55;5.47;;;5.50;99.90;;;;;;4990350;28;20201;-47
2022/01/23 15:26:39;;;;;;;5.40;4.63;;;5.50;99.90;;;;;;4990858;28;20222;-47
2022/01/23 15:29:09;;;;;;;5.13;4.20;;;5.50;99.90;;;;;;4990954;28;20225;-49
2022/01/23 15:31:38;;;;;;;9.75;4.82;;;5.50;99.90;;;;;;4989217;28;20226;-48
2022/01/23 15:34:06;;;;;;;5.78;4.85;;;5.50;99.90;;;;;;4990502;28;20197;-48
2022/01/23 15:36:36;;;;;;;5.50;4.63;;;5.50;99.90;;;;;;4990795;28;20656;-49
2022/01/23 15:39:05;;;;;;;5.20;4.53;;;5.50;99.90;;;;;;5005936;28;20214;-50
2022/01/23 15:41:33;;;;;;;6.43;4.65;;;5.50;99.90;;;;;;4989912;28;20709;-48
2022/01/23 15:44:01;;;;;;;5.47;4.70;;;5.50;99.90;;;;;;4990099;28;20286;-47
2022/01/23 15:46:39;;;;;;;6.75;5.13;;;5.50;99.90;;;;;;4991242;28;20311;-49
2022/01/23 15:49:07;;;;;;;6.68;5.22;;;5.50;99.90;;;;;;4990732;28;20234;-49
2022/01/23 15:51:36;;;;;;;6.35;5.00;;;5.50;99.90;;;;;;5005314;28;20214;-49
2022/01/23 15:54:05;;;;;;;6.43;4.68;;;5.50;99.90;;;;;;5009022;28;20670;-46
2022/01/23 15:56:33;;;;;;;4.78;4.22;;;5.50;99.90;;;;;;5004957;28;20241;-48
2022/01/23 15:59:01;;;;;;;8.25;5.40;;;5.60;99.90;;;;;;4994711;28;20201;-48